Time;durP1;ratioP1;P1;durP2;ratioP2;P2;SDS_P1;SDS_P2;PMS_P1;PMS_P2;Temp;Humidity;BMP_temperature;BMP_pressure;BME280_temperature;BME280_humidity;BME280_pressure;Samples;Min_cycle;Max_cycle;Signal;HPM_P1;HPM_P2
2024/01/28 00:00:58;;;;;;;;;30.75;25.75;;;;;5.83;68.28;102369.06;5124155;27;45301;-85
2024/01/28 00:03:23;;;;;;;;;45.25;38.00;;;;;5.69;68.59;102337.50;5131890;27;45262;-84
2024/01/28 00:05:51;;;;;;;;;26.00;24.75;;;;;5.77;68.73;102343.59;5142673;27;45436;-84
2024/01/28 00:08:17;;;;;;;;;36.25;30.25;;;;;5.76;68.18;102333.06;5142471;27;45326;-85
2024/01/28 00:10:42;;;;;;;;;28.25;24.25;;;;;5.80;68.06;102338.28;5142846;27;45394;-86
2024/01/28 00:13:08;;;;;;;;;34.25;29.75;;;;;5.87;67.24;102331.19;5134438;27;45333;-86
2024/01/28 00:15:33;;;;;;;;;22.50;19.00;;;;;5.97;67.37;102308.22;5103365;27;48085;-87
2024/01/28 00:17:58;;;;;;;;;19.50;18.50;;;;;5.97;66.07;102289.75;5120301;27;45463;-87
2024/01/28 00:20:24;;;;;;;;;20.50;17.50;;;;;5.95;66.25;102280.97;5120661;27;45603;-85
2024/01/28 00:22:49;;;;;;;;;24.75;21.75;;;;;5.82;66.55;102252.00;5121042;27;45197;-87
2024/01/28 00:25:15;;;;;;;;;24.75;24.50;;;;;5.66;66.72;102218.75;5102151;27;48703;-85
2024/01/28 00:27:41;;;;;;;;;25.50;21.50;;;;;5.88;66.94;102265.16;5120278;27;45425;-85
2024/01/28 00:30:08;;;;;;;;;37.00;29.00;;;;;5.96;67.03;102285.38;5135135;27;45286;-84
2024/01/28 00:32:34;;;;;;;;;42.00;39.00;;;;;5.83;67.62;102296.00;5147195;27;45497;-84
2024/01/28 00:34:59;;;;;;;;;42.75;36.00;;;;;5.59;68.32;102264.53;5142074;27;45502;-86
2024/01/28 00:37:24;;;;;;;;;55.25;41.75;;;;;5.58;68.65;102281.28;5123104;27;45296;-86
2024/01/28 00:39:50;;;;;;;;;40.00;35.50;;;;;5.50;69.08;102283.13;5143058;27;45291;-86
2024/01/28 00:42:16;;;;;;;;;35.75;33.75;;;;;5.35;68.77;102292.03;5141931;27;45683;-83
2024/01/28 00:44:41;;;;;;;;;36.75;35.25;;;;;5.26;69.16;102286.81;5145252;27;45320;-89
2024/01/28 00:47:06;;;;;;;;;43.50;39.00;;;;;4.91;69.69;102243.09;5147850;27;45408;-88
2024/01/28 00:49:32;;;;;;;;;44.00;38.50;;;;;5.11;70.29;102281.66;5130731;27;45172;-85
2024/01/28 00:51:57;;;;;;;;;49.75;40.50;;;;;5.03;70.38;102268.50;5129450;27;45340;-86
2024/01/28 00:54:24;;;;;;;;;44.75;41.00;;;;;5.06;70.21;102279.00;5125198;27;47073;-88
2024/01/28 00:56:50;;;;;;;;;41.75;37.25;;;;;5.10;70.38;102286.03;5105218;27;45353;-86
2024/01/28 00:59:15;;;;;;;;;50.00;44.75;;;;;5.10;70.22;102278.13;5125312;27;45388;-88
2024/01/28 01:01:41;;;;;;;;;40.75;33.50;;;;;5.09;70.22;102279.03;5125433;27;45289;-86
2024/01/28 01:04:06;;;;;;;;;38.25;37.25;;;;;4.94;70.82;102258.00;5123454;27;45363;-87
2024/01/28 01:06:31;;;;;;;;;44.25;39.50;;;;;4.95;71.07;102259.78;5120760;27;45463;-85
2024/01/28 01:08:57;;;;;;;;;34.75;26.75;;;;;4.98;70.81;102267.66;5121662;27;45332;-86
2024/01/28 01:11:23;;;;;;;;;40.25;36.25;;;;;4.78;71.44;102245.81;5122114;27;45517;-89
2024/01/28 01:13:51;;;;;;;;;41.00;38.50;;;;;4.95;71.29;102265.06;5124166;27;45416;-89
2024/01/28 01:16:17;;;;;;;;;43.75;39.25;;;;;5.07;70.93;102286.03;5125445;27;45513;-87
2024/01/28 01:18:42;;;;;;;;;38.75;36.50;;;;;5.03;70.59;102279.03;5142931;27;45403;-87
2024/01/28 01:21:08;;;;;;;;;37.25;36.75;;;;;4.96;71.13;102282.63;5142679;27;45353;-87
2024/01/28 01:23:33;;;;;;;;;33.00;33.00;;;;;4.77;71.60;102249.31;5123322;27;46791;-88
2024/01/28 01:25:59;;;;;;;;;36.50;34.50;;;;;4.83;71.24;102254.59;5143317;27;45304;-89
2024/01/28 01:28:31;;;;;;;;;43.75;34.50;;;;;4.80;70.78;102254.56;5125819;27;45290;-89
2024/01/28 01:30:57;;;;;;;;;34.75;33.25;;;;;4.76;71.23;102247.56;5126314;27;45151;-88
2024/01/28 01:33:22;;;;;;;;;39.25;34.00;;;;;4.85;71.10;102271.25;5126755;27;45238;-87
2024/01/28 01:35:47;;;;;;;;;31.75;31.75;;;;;4.82;71.22;102264.25;5108101;27;45383;-87
2024/01/28 01:38:13;;;;;;;;;37.25;28.75;;;;;4.65;71.64;102222.16;5108102;27;45476;-88
2024/01/28 01:40:38;;;;;;;;;41.50;36.50;;;;;4.85;71.04;102237.00;5108512;27;45235;-89
2024/01/28 01:43:09;;;;;;;;;42.00;34.75;;;;;4.56;71.89;102190.59;5107440;27;46711;-86
2024/01/28 01:45:37;;;;;;;;;27.75;23.00;;;;;4.81;71.62;102227.31;5122235;27;45292;-86
2024/01/28 01:48:07;;;;;;;;;43.25;36.00;;;;;4.84;71.85;102230.84;5121373;27;45376;-86
2024/01/28 01:50:33;;;;;;;;;47.75;36.50;;;;;4.70;71.12;102196.66;5120510;27;45306;-85
2024/01/28 01:53:01;;;;;;;;;36.00;27.25;;;;;4.74;71.64;102211.56;5120345;27;46540;-85
2024/01/28 01:55:27;;;;;;;;;45.50;34.25;;;;;4.80;71.74;102225.56;5137833;27;45210;-86
2024/01/28 01:57:54;;;;;;;;;33.50;33.50;;;;;4.67;71.83;102195.78;5141468;27;45294;-85
2024/01/28 02:00:19;;;;;;;;;24.25;21.50;;;;;4.79;71.52;102214.16;5140103;27;45405;-83
2024/01/28 02:02:46;;;;;;;;;30.25;28.25;;;;;4.90;71.61;102208.81;5139793;27;46142;-85
2024/01/28 02:05:11;;;;;;;;;26.25;26.25;;;;;4.96;71.76;102219.34;5139257;27;45377;-84
2024/01/28 02:07:36;;;;;;;;;18.00;17.00;;;;;4.88;71.15;102195.66;5140935;27;45263;-84
2024/01/28 02:10:03;;;;;;;;;14.25;12.25;;;;;5.16;70.70;102219.19;5122167;27;45427;-87
2024/01/28 02:12:29;;;;;;;;;15.50;14.00;;;;;5.01;70.23;102167.44;5140512;27;45647;-89
2024/01/28 02:15:06;;;;;;;;;15.25;14.00;;;;;5.32;69.89;102218.16;5124790;27;45320;-85
2024/01/28 02:17:31;;;;;;;;;13.25;11.75;;;;;5.37;70.24;102204.94;5118445;27;45180;-87
2024/01/28 02:19:57;;;;;;;;;17.00;13.25;;;;;5.37;69.81;102211.09;5123706;27;45247;-85
2024/01/28 02:22:22;;;;;;;;;19.00;14.00;;;;;5.26;69.30;102192.72;5118123;27;46330;-84
2024/01/28 02:24:47;;;;;;;;;31.00;22.50;;;;;5.27;69.65;102189.19;5109515;27;46061;-84
2024/01/28 02:27:13;;;;;;;;;22.00;18.75;;;;;5.34;69.20;102205.88;5118805;27;45386;-84
2024/01/28 02:29:38;;;;;;;;;14.75;14.75;;;;;5.30;69.00;102178.59;5100040;27;45337;-87
2024/01/28 02:32:04;;;;;;;;;19.25;14.25;;;;;5.35;69.25;102193.53;5118463;27;45411;-84
2024/01/28 02:34:29;;;;;;;;;17.50;15.00;;;;;5.39;69.74;102187.34;5128321;27;45241;-84
2024/01/28 02:36:55;;;;;;;;;16.50;13.00;;;;;5.32;69.77;102170.69;5139597;27;45233;-85
2024/01/28 02:39:20;;;;;;;;;17.25;13.25;;;;;5.41;69.02;102167.09;5122188;27;45276;-87
2024/01/28 02:41:45;;;;;;;;;13.75;11.50;;;;;5.53;69.46;102190.72;5133366;27;45482;-85
2024/01/28 02:44:11;;;;;;;;;19.25;14.25;;;;;5.55;68.69;102183.66;5137857;27;45823;-86
2024/01/28 02:46:36;;;;;;;;;11.00;11.00;;;;;5.54;68.49;102174.00;5137081;27;45457;-85
2024/01/28 02:49:01;;;;;;;;;12.00;12.00;;;;;5.48;69.18;102166.16;5122284;27;45403;-85
2024/01/28 02:51:27;;;;;;;;;16.25;13.75;;;;;5.42;68.57;102147.72;5138745;27;46175;-86
2024/01/28 02:53:52;;;;;;;;;10.50;10.50;;;;;5.59;68.67;102174.81;5134962;27;45427;-85
2024/01/28 02:56:17;;;;;;;;;13.25;11.00;;;;;5.48;68.95;102161.75;5119757;27;45409;-86
2024/01/28 02:58:43;;;;;;;;;12.00;9.25;;;;;5.56;68.78;102174.84;5123106;27;45560;-84
2024/01/28 03:01:08;;;;;;;;;19.00;13.50;;;;;5.53;68.19;102161.69;5112041;27;46960;-86
2024/01/28 03:03:34;;;;;;;;;12.75;12.75;;;;;5.51;68.37;102167.00;5130943;27;45473;-85
2024/01/28 03:05:59;;;;;;;;;14.00;10.00;;;;;5.43;69.16;102146.84;5122660;27;45974;-86
2024/01/28 03:08:25;;;;;;;;;13.50;10.00;;;;;5.39;69.32;102138.09;5120352;27;45459;-87
2024/01/28 03:10:50;;;;;;;;;16.75;13.50;;;;;5.48;68.36;102150.31;5111811;27;47202;-87
2024/01/28 03:13:15;;;;;;;;;17.75;14.00;;;;;5.32;68.58;102123.19;5103153;27;45313;-85
2024/01/28 03:15:41;;;;;;;;;15.25;13.25;;;;;5.17;68.51;102094.34;5117457;27;45727;-86
2024/01/28 03:18:07;;;;;;;;;14.00;13.50;;;;;5.42;68.74;102130.13;5118772;27;45588;-85
2024/01/28 03:20:32;;;;;;;;;18.75;14.50;;;;;5.32;69.77;102112.63;5117470;27;45309;-84
2024/01/28 03:22:58;;;;;;;;;15.00;11.75;;;;;5.50;69.14;102143.25;5117849;27;50290;-84
2024/01/28 03:25:23;;;;;;;;;13.25;12.00;;;;;5.22;69.24;102093.41;5119608;27;46126;-87
2024/01/28 03:27:49;;;;;;;;;20.50;14.25;;;;;5.48;68.49;102129.22;5123956;27;45344;-89
2024/01/28 03:30:15;;;;;;;;;13.50;13.50;;;;;5.41;69.53;102112.56;5121167;27;45317;-84
2024/01/28 03:32:40;;;;;;;;;17.00;13.50;;;;;5.47;69.65;102117.78;5138733;27;45432;-84
2024/01/28 03:35:06;;;;;;;;;15.25;12.00;;;;;5.25;69.72;102069.63;5126027;27;45400;-86
2024/01/28 03:37:31;;;;;;;;;16.00;14.00;;;;;5.47;69.25;102116.88;5141301;27;45586;-85
2024/01/28 03:39:57;;;;;;;;;11.75;10.75;;;;;5.42;68.93;102095.84;5142736;27;45612;-84
2024/01/28 03:42:23;;;;;;;;;14.25;12.75;;;;;5.29;69.58;102092.44;5102853;27;45389;-86
2024/01/28 03:44:49;;;;;;;;;22.50;16.50;;;;;5.29;69.61;102104.75;5132025;27;45386;-86
2024/01/28 03:47:14;;;;;;;;;16.50;14.00;;;;;5.28;69.70;102090.72;5141433;27;45792;-86
2024/01/28 03:49:40;;;;;;;;;13.00;13.00;;;;;4.99;70.26;102048.81;5141719;27;46339;-84
2024/01/28 03:52:05;;;;;;;;;14.00;11.75;;;;;5.41;69.55;102115.19;5121864;27;45451;-86
2024/01/28 03:54:31;;;;;;;;;10.00;9.75;;;;;5.07;69.61;102058.38;5130287;27;45206;-86
2024/01/28 03:56:56;;;;;;;;;14.00;13.00;;;;;5.39;68.56;102100.28;5132796;27;45251;-85
2024/01/28 03:59:22;;;;;;;;;17.75;11.25;;;;;5.16;69.79;102080.28;5123772;27;46192;-86
2024/01/28 04:01:47;;;;;;;;;17.75;15.50;;;;;5.29;70.48;102097.72;5122386;27;45258;-86
2024/01/28 04:04:12;;;;;;;;;13.00;10.25;;;;;5.23;69.82;102092.53;5128961;27;45717;-85
2024/01/28 04:06:43;;;;;;;;;15.25;14.00;;;;;5.21;69.91;102102.22;5144899;27;44897;-85
2024/01/28 04:09:09;;;;;;;;;14.25;12.75;;;;;5.01;69.94;102073.41;5143338;27;46518;-85
2024/01/28 04:11:34;;;;;;;;;14.75;12.50;;;;;4.96;69.98;102066.44;5128570;27;45586;-87
2024/01/28 04:14:00;;;;;;;;;13.75;11.25;;;;;5.19;70.32;102098.69;5105607;27;45370;-85
2024/01/28 04:16:26;;;;;;;;;20.25;15.00;;;;;5.05;70.14;102084.78;5141742;27;45364;-88
2024/01/28 04:18:51;;;;;;;;;12.00;12.00;;;;;5.15;70.34;102088.22;5124589;27;47613;-86
2024/01/28 04:21:17;;;;;;;;;10.00;6.00;;;;;5.10;70.48;102079.47;5143330;27;45340;-86
2024/01/28 04:23:43;;;;;;;;;14.00;12.50;;;;;4.79;70.64;102026.16;5143182;27;45302;-88
2024/01/28 04:26:09;;;;;;;;;18.00;11.00;;;;;5.16;70.92;102090.81;5121517;27;45520;-86
2024/01/28 04:28:35;;;;;;;;;14.75;13.25;;;;;5.06;70.27;102083.88;5122529;27;45361;-89
2024/01/28 04:31:02;;;;;;;;;17.25;13.00;;;;;5.17;70.49;102089.06;5120895;27;45469;-87
2024/01/28 04:33:28;;;;;;;;;12.25;9.00;;;;;5.17;70.72;102097.84;5122308;27;45349;-86
2024/01/28 04:35:53;;;;;;;;;10.25;10.25;;;;;5.01;70.82;102073.41;5140628;27;45529;-86
2024/01/28 04:38:18;;;;;;;;;10.75;9.50;;;;;5.10;70.99;102093.53;5143317;27;46062;-86
2024/01/28 04:40:44;;;;;;;;;12.50;10.75;;;;;5.04;70.74;102083.91;5141189;27;45382;-87
2024/01/28 04:43:09;;;;;;;;;14.00;10.00;;;;;5.08;71.92;102097.06;5143594;27;45438;-88
2024/01/28 04:45:35;;;;;;;;;11.75;10.00;;;;;5.07;71.13;102100.56;5141111;27;45449;-85
2024/01/28 04:48:01;;;;;;;;;13.75;12.50;;;;;4.94;71.92;102078.72;5123618;27;46851;-87
2024/01/28 04:50:26;;;;;;;;;10.00;10.00;;;;;5.02;71.87;102076.91;5140556;27;45503;-85
2024/01/28 04:52:51;;;;;;;;;13.50;11.25;;;;;5.06;70.84;102078.59;5141592;27;45322;-85
2024/01/28 04:55:17;;;;;;;;;13.00;11.25;;;;;5.10;71.13;102088.25;5129123;27;45214;-87
2024/01/28 04:57:43;;;;;;;;;12.00;10.00;;;;;5.13;70.89;102085.59;5121806;27;47384;-85
2024/01/28 05:00:12;;;;;;;;;13.50;11.75;;;;;5.10;70.64;102090.91;5101636;27;45379;-84
2024/01/28 05:02:38;;;;;;;;;10.25;10.00;;;;;4.86;71.00;102049.81;5120649;27;45290;-86
2024/01/28 05:05:04;;;;;;;;;10.75;10.00;;;;;4.86;70.88;102033.13;5101757;27;45638;-85
2024/01/28 05:07:29;;;;;;;;;13.00;10.25;;;;;4.97;71.58;102060.25;5102146;27;47091;-85
2024/01/28 05:09:55;;;;;;;;;18.00;12.75;;;;;4.99;70.91;102062.00;5121733;27;45355;-86
2024/01/28 05:12:20;;;;;;;;;16.75;13.00;;;;;5.08;71.90;102068.03;5122562;27;45304;-85
2024/01/28 05:14:46;;;;;;;;;1.00;1.00;;;;;5.07;70.83;102069.81;5129271;27;45410;-87
2024/01/28 05:17:12;;;;;;;;;13.75;13.00;;;;;4.94;70.73;102041.81;5140856;27;45307;-87
2024/01/28 05:19:37;;;;;;;;;9.50;6.25;;;;;5.06;71.29;102068.06;5139768;27;45268;-86
2024/01/28 05:22:04;;;;;;;;;12.00;12.00;;;;;5.04;71.17;102059.31;5141781;27;45325;-85
2024/01/28 05:24:29;;;;;;;;;10.00;9.00;;;;;5.04;70.80;102059.31;5123498;27;45355;-86
2024/01/28 05:26:55;;;;;;;;;13.25;11.25;;;;;5.19;70.62;102088.16;5142171;27;45357;-87
2024/01/28 05:29:20;;;;;;;;;9.75;7.25;;;;;5.10;71.33;102075.06;5142520;27;45233;-86
2024/01/28 05:31:46;;;;;;;;;14.50;9.75;;;;;5.16;71.70;102090.81;5122594;27;45546;-87
2024/01/28 05:34:11;;;;;;;;;11.25;11.25;;;;;5.04;70.83;102075.13;5100347;27;45299;-85
2024/01/28 05:36:36;;;;;;;;;14.00;11.25;;;;;4.95;71.09;102075.22;5120258;27;46016;-86
2024/01/28 05:39:02;;;;;;;;;11.25;9.25;;;;;4.84;71.43;102056.00;5119590;27;45523;-86
2024/01/28 05:41:28;;;;;;;;;10.75;9.25;;;;;4.88;71.97;102060.34;5135795;27;45476;-89
2024/01/28 05:43:53;;;;;;;;;10.25;9.75;;;;;5.04;71.86;102093.56;5139439;27;45555;-87
2024/01/28 05:46:19;;;;;;;;;13.50;11.75;;;;;4.98;72.03;102085.75;5120811;27;46678;-88
2024/01/28 05:48:44;;;;;;;;;16.25;13.00;;;;;4.98;71.60;102096.28;5121690;27;45282;-85
2024/01/28 05:51:10;;;;;;;;;14.25;12.75;;;;;4.94;72.73;102090.13;5120621;27;45524;-88
2024/01/28 05:53:35;;;;;;;;;14.25;11.75;;;;;4.88;71.87;102078.78;5120011;27;45582;-84
2024/01/28 05:56:01;;;;;;;;;12.25;11.25;;;;;4.93;71.74;102087.53;5138535;27;46002;-85
2024/01/28 05:58:26;;;;;;;;;17.25;15.25;;;;;4.85;71.68;102077.06;5143552;27;45372;-85
2024/01/28 06:00:51;;;;;;;;;10.75;8.75;;;;;4.83;72.50;102075.34;5141656;27;45433;-85
2024/01/28 06:03:17;;;;;;;;;13.00;10.00;;;;;4.86;72.83;102081.44;5129839;27;45612;-85
2024/01/28 06:05:42;;;;;;;;;22.50;12.25;;;;;4.82;72.68;102068.28;5138893;27;45222;-85
2024/01/28 06:08:07;;;;;;;;;13.00;13.00;;;;;4.82;72.08;102065.66;5123922;27;45646;-85
2024/01/28 06:10:33;;;;;;;;;13.25;12.50;;;;;4.84;72.17;102070.03;5147432;27;45163;-86
2024/01/28 06:12:58;;;;;;;;;16.00;12.00;;;;;4.84;72.67;102067.41;5141881;27;45241;-86
2024/01/28 06:15:24;;;;;;;;;15.75;11.25;;;;;4.82;72.26;102060.38;5131480;27;46590;-84
2024/01/28 06:17:49;;;;;;;;;12.50;10.50;;;;;4.92;72.78;102077.88;5129795;27;45483;-86
2024/01/28 06:20:14;;;;;;;;;15.75;11.25;;;;;4.91;72.65;102073.50;5117873;27;45548;-84
2024/01/28 06:22:40;;;;;;;;;11.25;9.25;;;;;4.90;72.45;102071.75;5100819;27;45423;-87
2024/01/28 06:25:07;;;;;;;;;9.50;9.50;;;;;4.85;72.85;102060.38;5119902;27;45412;-85
2024/01/28 06:27:32;;;;;;;;;13.75;12.50;;;;;4.75;72.45;102051.66;5121461;27;45295;-85
2024/01/28 06:29:57;;;;;;;;;11.25;11.25;;;;;4.81;72.88;102074.44;5139259;27;45793;-86
2024/01/28 06:32:23;;;;;;;;;14.25;12.00;;;;;4.81;72.93;102069.19;5135550;27;45666;-85
2024/01/28 06:34:48;;;;;;;;;19.75;14.50;;;;;4.54;72.89;102025.50;5130239;27;45555;-85
2024/01/28 06:37:14;;;;;;;;;10.50;10.25;;;;;4.41;72.97;101996.59;5140553;27;45468;-87
2024/01/28 06:39:39;;;;;;;;;13.75;11.00;;;;;4.63;73.67;102023.66;5121953;27;45243;-86
2024/01/28 06:42:05;;;;;;;;;13.00;10.50;;;;;4.70;73.54;102021.84;5140836;27;45426;-88
2024/01/28 06:44:33;;;;;;;;;12.25;11.00;;;;;4.42;73.86;101979.03;5129642;27;45824;-88
2024/01/28 06:46:59;;;;;;;;;13.25;13.25;;;;;4.67;73.65;102025.38;5123694;27;45403;-85
2024/01/28 06:49:25;;;;;;;;;9.50;9.00;;;;;4.56;73.37;102007.94;5121821;27;45285;-86
2024/01/28 06:51:51;;;;;;;;;12.25;10.25;;;;;4.59;73.73;102016.69;5120429;27;45382;-88
2024/01/28 06:54:18;;;;;;;;;16.00;11.75;;;;;4.61;74.00;102021.94;5140588;27;45872;-85
2024/01/28 06:56:44;;;;;;;;;12.25;12.25;;;;;4.57;73.91;102009.69;5141345;27;45460;-87
2024/01/28 06:59:09;;;;;;;;;14.00;10.00;;;;;4.47;74.56;102003.59;5141535;27;45357;-89
2024/01/28 07:01:35;;;;;;;;;12.75;10.25;;;;;4.57;73.99;102018.47;5124505;27;45605;-88
2024/01/28 07:04:00;;;;;;;;;8.50;8.25;;;;;4.57;74.29;102015.81;5124458;27;45248;-88
2024/01/28 07:06:25;;;;;;;;;14.00;10.00;;;;;4.50;74.32;102003.56;5123465;27;45563;-87
2024/01/28 07:08:51;;;;;;;;;15.00;11.25;;;;;4.41;74.44;101987.84;5121999;27;48132;-88
2024/01/28 07:11:16;;;;;;;;;19.50;13.00;;;;;4.51;74.75;102015.84;5126079;27;45238;-87
2024/01/28 07:13:41;;;;;;;;;14.00;12.00;;;;;4.51;74.96;102005.31;5139426;27;45642;-87
2024/01/28 07:16:07;;;;;;;;;13.25;13.00;;;;;4.25;74.71;101960.75;5143107;27;45246;-86
2024/01/28 07:18:32;;;;;;;;;12.00;11.25;;;;;4.54;74.76;102010.56;5144343;27;45295;-86
2024/01/28 07:20:58;;;;;;;;;12.25;12.25;;;;;4.39;74.68;101990.50;5143901;27;45250;-85
2024/01/28 07:23:23;;;;;;;;;18.00;11.75;;;;;4.52;74.79;102017.59;5146485;27;45365;-86
2024/01/28 07:25:48;;;;;;;;;13.25;12.25;;;;;4.48;74.52;102013.25;5126877;27;61868;-85
2024/01/28 07:28:14;;;;;;;;;12.75;12.75;;;;;4.47;74.86;102019.41;5127648;27;45390;-85
2024/01/28 07:30:39;;;;;;;;;16.00;12.00;;;;;4.49;74.85;102022.03;5121757;27;45310;-85
2024/01/28 07:33:07;;;;;;;;;18.25;16.75;;;;;4.47;74.63;102024.69;5120584;27;45463;-84
2024/01/28 07:35:36;;;;;;;;;16.25;10.50;;;;;4.35;74.73;102001.06;5139906;27;46099;-87
2024/01/28 07:38:02;;;;;;;;;14.75;14.75;;;;;4.54;74.81;102036.03;5129686;27;44833;-86
2024/01/28 07:40:27;;;;;;;;;13.75;13.75;;;;;4.57;75.26;102031.63;5141128;27;45725;-89
2024/01/28 07:42:55;;;;;;;;;13.25;12.00;;;;;4.51;75.12;102021.13;5132089;27;46080;-83
2024/01/28 07:45:21;;;;;;;;;10.50;10.50;;;;;4.61;75.14;102028.06;5130128;27;45466;-85
2024/01/28 07:47:46;;;;;;;;;12.75;11.25;;;;;4.61;74.95;102033.34;5122238;27;45609;-85
2024/01/28 07:50:11;;;;;;;;;10.00;10.00;;;;;4.36;75.13;101976.47;5125217;27;45155;-85
2024/01/28 07:52:37;;;;;;;;;16.25;13.00;;;;;4.55;74.92;102007.03;5146277;27;45418;-85
2024/01/28 07:55:02;;;;;;;;;9.00;2.50;;;;;4.67;74.27;102032.41;5132920;27;44937;-85
2024/01/28 07:57:28;;;;;;;;;13.75;11.25;;;;;4.72;74.89;102035.88;5136807;27;45360;-87
2024/01/28 07:59:53;;;;;;;;;13.25;13.25;;;;;4.69;74.46;102031.53;5146042;27;45635;-86
2024/01/28 08:02:18;;;;;;;;;16.00;10.00;;;;;4.74;73.86;102034.97;5124732;27;46336;-85
2024/01/28 08:04:46;;;;;;;;;12.50;12.00;;;;;4.66;73.76;102012.22;5125034;27;45454;-84
2024/01/28 08:07:11;;;;;;;;;13.50;13.50;;;;;4.81;74.92;102029.63;5128236;27;45223;-85
2024/01/28 08:09:37;;;;;;;;;15.75;10.75;;;;;4.84;73.78;102024.38;5138175;27;45205;-84
2024/01/28 08:12:03;;;;;;;;;13.25;10.50;;;;;5.00;73.53;102041.78;5139923;27;45245;-83
2024/01/28 08:14:30;;;;;;;;;18.00;17.00;;;;;4.97;73.26;102016.31;5109752;27;45482;-81
2024/01/28 08:16:55;;;;;;;;;10.75;10.75;;;;;5.12;73.62;102027.59;5141475;27;45907;-83
2024/01/28 08:19:21;;;;;;;;;16.50;10.75;;;;;5.22;73.41;102027.47;5130999;27;45615;-86
2024/01/28 08:21:47;;;;;;;;;20.00;15.25;;;;;5.30;73.40;102030.88;5125991;27;46273;-87
2024/01/28 08:24:13;;;;;;;;;17.00;15.25;;;;;5.38;72.80;102028.16;5142768;27;45293;-82
2024/01/28 08:26:38;;;;;;;;;17.25;14.25;;;;;5.14;72.88;101981.84;5142427;27;44794;-85
2024/01/28 08:29:03;;;;;;;;;25.25;16.25;;;;;5.47;72.51;102017.53;5141888;27;45426;-86
2024/01/28 08:31:29;;;;;;;;;12.50;12.50;;;;;5.40;72.26;101997.38;5142972;27;45432;-85
2024/01/28 08:33:54;;;;;;;;;18.50;15.25;;;;;5.70;71.43;102026.88;5141347;27;45407;-85
2024/01/28 08:36:20;;;;;;;;;18.00;16.75;;;;;5.72;72.15;102033.03;5140128;27;56947;-85
2024/01/28 08:38:45;;;;;;;;;17.25;16.75;;;;;5.72;71.88;102018.06;5144609;27;45380;-83
2024/01/28 08:41:11;;;;;;;;;18.50;13.75;;;;;5.78;71.08;102017.97;5145553;27;45360;-84
2024/01/28 08:43:37;;;;;;;;;19.75;17.00;;;;;5.94;71.55;102034.53;5135966;27;45226;-86
2024/01/28 08:46:03;;;;;;;;;21.00;15.25;;;;;6.00;70.76;102028.28;5132247;27;45282;-88
2024/01/28 08:48:30;;;;;;;;;12.25;11.75;;;;;5.98;70.03;102022.13;5111083;27;45246;-91
2024/01/28 08:50:57;;;;;;;;;15.50;15.50;;;;;5.97;70.26;102034.47;5113179;27;46267;-88
2024/01/28 08:53:23;;;;;;;;;18.00;16.25;;;;;6.00;70.68;102033.56;5109355;27;45445;-86
2024/01/28 08:55:48;;;;;;;;;18.50;14.75;;;;;6.00;70.31;102034.44;5124112;27;50237;-84
2024/01/28 08:58:14;;;;;;;;;14.25;12.75;;;;;5.97;70.79;102025.66;5122191;27;45337;-85
2024/01/28 09:00:41;;;;;;;;;14.25;13.00;;;;;5.97;70.66;102023.91;5121904;27;46208;-85
2024/01/28 09:03:06;;;;;;;;;17.50;14.25;;;;;6.08;71.05;102024.63;5122287;27;45470;-85
2024/01/28 09:05:31;;;;;;;;;7.00;5.25;;;;;6.02;70.44;102011.53;5125034;27;45227;-84
2024/01/28 09:07:57;;;;;;;;;10.25;8.75;;;;;6.05;70.69;102007.97;5125895;27;45337;-87
2024/01/28 09:10:23;;;;;;;;;21.00;15.75;;;;;6.03;70.14;102007.13;5142685;27;45332;-84
2024/01/28 09:12:48;;;;;;;;;17.75;13.25;;;;;6.15;69.97;102012.22;5124592;27;45242;-86
2024/01/28 09:15:14;;;;;;;;;15.50;15.00;;;;;6.08;70.74;101986.78;5137611;27;45830;-87
2024/01/28 09:17:41;;;;;;;;;17.25;14.00;;;;;6.07;69.96;101971.84;5125154;27;45307;-86
2024/01/28 09:20:07;;;;;;;;;19.75;16.00;;;;;6.28;69.62;102008.50;5123081;27;47694;-85
2024/01/28 09:22:35;;;;;;;;;17.00;15.00;;;;;6.33;69.43;102005.75;5145724;27;44706;-86
2024/01/28 09:25:02;;;;;;;;;17.00;16.50;;;;;6.32;69.08;101999.59;5130106;27;45416;-83
2024/01/28 09:27:27;;;;;;;;;16.50;16.50;;;;;6.31;69.77;102002.28;5125023;27;45578;-92
2024/01/28 09:29:53;;;;;;;;;16.50;16.00;;;;;6.32;69.52;101993.44;5127602;27;45259;-88
2024/01/28 09:32:18;;;;;;;;;19.50;16.25;;;;;6.26;69.09;101978.59;5104849;27;45286;-84
2024/01/28 09:34:45;;;;;;;;;1.00;1.00;;;;;6.44;69.00;101999.41;5107900;27;44732;-84
2024/01/28 09:37:10;;;;;;;;;18.25;15.25;;;;;6.47;69.38;102004.63;5107310;27;45285;-84
2024/01/28 09:39:36;;;;;;;;;17.00;16.75;;;;;6.41;68.55;101988.91;5129748;27;46216;-86
2024/01/28 09:42:13;;;;;;;;;18.75;16.50;;;;;6.48;69.24;102006.38;5127054;27;45312;-86
2024/01/28 09:44:38;;;;;;;;;14.25;12.25;;;;;6.49;68.98;101997.56;5126180;27;45441;-86
2024/01/28 09:47:06;;;;;;;;;18.75;13.75;;;;;6.54;68.89;101983.41;5122673;27;45414;-84
2024/01/28 09:49:39;;;;;;;;;20.75;19.25;;;;;6.61;68.67;101985.03;5127660;27;46086;-85
2024/01/28 09:52:07;;;;;;;;;17.00;15.75;;;;;6.70;68.21;101969.03;5130296;27;46098;-85
2024/01/28 09:54:32;;;;;;;;;23.25;16.75;;;;;6.79;68.16;101976.78;5143656;27;45446;-83
2024/01/28 09:56:59;;;;;;;;;11.75;11.75;;;;;6.90;68.18;101982.75;5146589;27;45263;-89
2024/01/28 09:59:25;;;;;;;;;22.50;15.00;;;;;6.91;67.93;101979.22;5144611;27;45273;-84
2024/01/28 10:01:52;;;;;;;;;17.25;13.75;;;;;6.95;67.89;101986.19;5128009;27;45360;-88
2024/01/28 10:04:18;;;;;;;;;20.75;15.50;;;;;6.95;67.71;101994.09;5126626;27;45254;-86
2024/01/28 10:06:46;;;;;;;;;20.25;18.75;;;;;7.01;67.46;102001.91;5124817;27;45428;-89
2024/01/28 10:09:11;;;;;;;;;16.25;16.00;;;;;6.96;67.43;101993.22;5128160;27;45336;-87
2024/01/28 10:11:38;;;;;;;;;17.00;15.50;;;;;6.95;67.35;101972.94;5135071;27;44711;-87
2024/01/28 10:14:03;;;;;;;;;17.75;16.25;;;;;6.90;67.60;101945.72;5140315;27;45353;-89
2024/01/28 10:16:34;;;;;;;;;20.00;17.50;;;;;7.19;67.21;101978.69;5109831;27;45343;-84
2024/01/28 10:19:00;;;;;;;;;18.50;16.25;;;;;7.48;66.93;101997.47;5126728;27;45448;-81
2024/01/28 10:21:25;;;;;;;;;20.50;18.00;;;;;7.62;66.46;102013.94;5130089;27;45257;-86
2024/01/28 10:23:51;;;;;;;;;24.25;17.75;;;;;7.73;65.89;102002.25;5129727;27;45203;-87
2024/01/28 10:26:16;;;;;;;;;25.25;21.75;;;;;7.77;65.08;101995.97;5129496;27;45415;-82
2024/01/28 10:28:42;;;;;;;;;21.75;18.25;;;;;7.74;65.25;101994.25;5123774;27;45910;-80
2024/01/28 10:31:08;;;;;;;;;30.25;21.00;;;;;7.89;65.35;102014.25;5125758;27;45268;-81
2024/01/28 10:33:34;;;;;;;;;21.00;20.00;;;;;7.84;65.41;102005.53;5103285;27;45260;-82
2024/01/28 10:36:03;;;;;;;;;20.75;16.00;;;;;7.71;65.05;102009.34;5102125;27;45389;-80
2024/01/28 10:38:32;;;;;;;;;17.50;13.75;;;;;7.62;65.54;102010.41;5124518;27;46519;-84
2024/01/28 10:40:59;;;;;;;;;23.00;20.00;;;;;7.75;65.33;102013.66;5122078;27;45417;-83
2024/01/28 10:43:35;;;;;;;;;25.75;21.75;;;;;7.92;64.59;102008.88;5122641;27;45902;-85
2024/01/28 10:46:02;;;;;;;;;17.75;16.25;;;;;7.81;65.34;101987.94;5123527;27;45374;-85
2024/01/28 10:48:31;;;;;;;;;24.25;20.50;;;;;7.81;65.25;102000.28;5123570;27;46160;-82
2024/01/28 10:50:59;;;;;;;;;18.75;15.50;;;;;7.81;64.96;102001.19;5129291;27;45420;-83
2024/01/28 10:53:29;;;;;;;;;25.00;20.50;;;;;7.65;64.55;101982.09;5133773;27;45230;-92
2024/01/28 10:55:55;;;;;;;;;19.75;18.25;;;;;7.73;64.95;101978.41;5108628;27;45393;-87
2024/01/28 10:58:21;;;;;;;;;20.25;17.00;;;;;7.80;65.22;101975.56;5123028;27;46638;-85
2024/01/28 11:00:46;;;;;;;;;26.00;21.75;;;;;7.74;64.86;101953.66;5122827;27;45303;-86
2024/01/28 11:03:13;;;;;;;;;22.00;16.25;;;;;7.89;64.56;101978.03;5129626;27;45301;-85
2024/01/28 11:05:39;;;;;;;;;16.75;16.75;;;;;7.74;64.71;101943.94;5116443;27;45249;-85
2024/01/28 11:08:06;;;;;;;;;21.75;19.25;;;;;7.95;64.67;101945.25;5108520;27;46474;-82
2024/01/28 11:10:33;;;;;;;;;26.00;25.00;;;;;7.87;64.26;101915.41;5145049;27;45533;-86